sensor_id;sensor_type;location;lat;lon;timestamp;P1;durP1;ratioP1;P2;durP2;ratioP2
75220;SDS011;63802;53.232;6.570;2023-08-01T00:01:04;11.13;;;3.75;;
75220;SDS011;63802;53.232;6.570;2023-08-01T00:03:29;16.20;;;4.45;;
75220;SDS011;63802;53.232;6.570;2023-08-01T00:05:54;16.95;;;4.40;;
75220;SDS011;63802;53.232;6.570;2023-08-01T00:08:20;19.48;;;4.22;;
75220;SDS011;63802;53.232;6.570;2023-08-01T00:10:46;13.40;;;4.15;;
75220;SDS011;63802;53.232;6.570;2023-08-01T00:13:12;12.25;;;3.90;;
75220;SDS011;63802;53.232;6.570;2023-08-01T00:15:38;12.00;;;3.60;;
75220;SDS011;63802;53.232;6.570;2023-08-01T00:18:04;11.18;;;3.53;;
75220;SDS011;63802;53.232;6.570;2023-08-01T00:20:29;15.02;;;3.80;;
75220;SDS011;63802;53.232;6.570;2023-08-01T00:22:55;11.10;;;3.70;;
75220;SDS011;63802;53.232;6.570;2023-08-01T00:25:20;9.90;;;3.97;;
75220;SDS011;63802;53.232;6.570;2023-08-01T00:27:46;11.30;;;3.75;;
75220;SDS011;63802;53.232;6.570;2023-08-01T00:30:11;10.98;;;3.40;;
75220;SDS011;63802;53.232;6.570;2023-08-01T00:32:37;12.63;;;3.75;;
75220;SDS011;63802;53.232;6.570;2023-08-01T00:35:03;11.52;;;3.75;;
75220;SDS011;63802;53.232;6.570;2023-08-01T00:37:29;12.85;;;3.83;;
75220;SDS011;63802;53.232;6.570;2023-08-01T00:39:54;13.48;;;4.10;;
75220;SDS011;63802;53.232;6.570;2023-08-01T00:42:20;13.60;;;4.10;;
75220;SDS011;63802;53.232;6.570;2023-08-01T00:44:45;11.82;;;3.97;;
75220;SDS011;63802;53.232;6.570;2023-08-01T00:47:14;13.98;;;3.92;;
75220;SDS011;63802;53.232;6.570;2023-08-01T00:49:40;13.90;;;3.95;;
75220;SDS011;63802;53.232;6.570;2023-08-01T00:52:07;9.75;;;3.55;;
75220;SDS011;63802;53.232;6.570;2023-08-01T00:54:33;12.95;;;4.35;;
75220;SDS011;63802;53.232;6.570;2023-08-01T00:57:02;14.50;;;3.95;;
75220;SDS011;63802;53.232;6.570;2023-08-01T00:59:28;9.05;;;3.88;;
75220;SDS011;63802;53.232;6.570;2023-08-01T01:01:54;11.35;;;3.47;;
75220;SDS011;63802;53.232;6.570;2023-08-01T01:04:20;9.82;;;3.70;;
75220;SDS011;63802;53.232;6.570;2023-08-01T01:06:47;10.15;;;3.72;;
75220;SDS011;63802;53.232;6.570;2023-08-01T01:09:21;12.98;;;4.00;;
75220;SDS011;63802;53.232;6.570;2023-08-01T01:11:46;11.75;;;3.97;;
75220;SDS011;63802;53.232;6.570;2023-08-01T01:14:12;10.18;;;3.88;;
75220;SDS011;63802;53.232;6.570;2023-08-01T01:16:38;10.98;;;3.85;;
75220;SDS011;63802;53.232;6.570;2023-08-01T01:19:06;13.18;;;4.20;;
75220;SDS011;63802;53.232;6.570;2023-08-01T01:21:35;8.52;;;3.38;;
75220;SDS011;63802;53.232;6.570;2023-08-01T01:24:04;9.35;;;3.28;;
75220;SDS011;63802;53.232;6.570;2023-08-01T01:26:32;8.85;;;3.40;;
75220;SDS011;63802;53.232;6.570;2023-08-01T01:28:58;13.82;;;3.83;;
75220;SDS011;63802;53.232;6.570;2023-08-01T01:31:25;8.07;;;3.47;;
75220;SDS011;63802;53.232;6.570;2023-08-01T01:33:51;9.18;;;3.85;;
75220;SDS011;63802;53.232;6.570;2023-08-01T01:36:17;14.23;;;4.45;;
75220;SDS011;63802;53.232;6.570;2023-08-01T01:38:43;11.70;;;4.30;;
75220;SDS011;63802;53.232;6.570;2023-08-01T01:41:08;9.93;;;3.92;;
75220;SDS011;63802;53.232;6.570;2023-08-01T01:43:34;11.68;;;4.00;;
75220;SDS011;63802;53.232;6.570;2023-08-01T01:45:59;16.42;;;5.22;;
75220;SDS011;63802;53.232;6.570;2023-08-01T01:48:25;11.95;;;4.10;;
75220;SDS011;63802;53.232;6.570;2023-08-01T01:50:50;11.48;;;4.45;;
75220;SDS011;63802;53.232;6.570;2023-08-01T01:53:16;13.88;;;4.55;;
75220;SDS011;63802;53.232;6.570;2023-08-01T01:55:41;12.15;;;4.53;;
75220;SDS011;63802;53.232;6.570;2023-08-01T01:58:07;15.27;;;5.03;;
75220;SDS011;63802;53.232;6.570;2023-08-01T02:00:33;12.35;;;3.97;;
75220;SDS011;63802;53.232;6.570;2023-08-01T02:02:58;12.55;;;4.10;;
75220;SDS011;63802;53.232;6.570;2023-08-01T02:05:24;13.13;;;4.57;;
75220;SDS011;63802;53.232;6.570;2023-08-01T02:07:49;13.52;;;4.55;;
75220;SDS011;63802;53.232;6.570;2023-08-01T02:10:14;16.95;;;5.03;;
75220;SDS011;63802;53.232;6.570;2023-08-01T02:12:40;15.95;;;4.20;;
75220;SDS011;63802;53.232;6.570;2023-08-01T02:15:06;18.58;;;4.50;;
75220;SDS011;63802;53.232;6.570;2023-08-01T02:17:32;13.10;;;4.38;;
75220;SDS011;63802;53.232;6.570;2023-08-01T02:19:57;12.32;;;4.18;;
75220;SDS011;63802;53.232;6.570;2023-08-01T02:22:24;10.90;;;4.40;;
75220;SDS011;63802;53.232;6.570;2023-08-01T02:24:50;13.18;;;3.90;;
75220;SDS011;63802;53.232;6.570;2023-08-01T02:27:16;12.90;;;4.43;;
75220;SDS011;63802;53.232;6.570;2023-08-01T02:29:41;13.45;;;4.38;;
75220;SDS011;63802;53.232;6.570;2023-08-01T02:32:06;19.23;;;4.57;;
75220;SDS011;63802;53.232;6.570;2023-08-01T02:34:32;11.00;;;3.90;;
75220;SDS011;63802;53.232;6.570;2023-08-01T02:36:58;15.48;;;4.25;;
75220;SDS011;63802;53.232;6.570;2023-08-01T02:39:23;18.35;;;4.60;;
75220;SDS011;63802;53.232;6.570;2023-08-01T02:41:48;10.65;;;3.95;;
75220;SDS011;63802;53.232;6.570;2023-08-01T02:44:14;11.13;;;4.00;;
75220;SDS011;63802;53.232;6.570;2023-08-01T02:46:39;10.30;;;4.10;;
75220;SDS011;63802;53.232;6.570;2023-08-01T02:49:05;18.23;;;4.35;;
75220;SDS011;63802;53.232;6.570;2023-08-01T02:51:30;11.02;;;3.65;;
75220;SDS011;63802;53.232;6.570;2023-08-01T02:53:55;14.90;;;4.07;;
75220;SDS011;63802;53.232;6.570;2023-08-01T02:56:21;11.95;;;4.43;;
75220;SDS011;63802;53.232;6.570;2023-08-01T02:58:46;12.50;;;4.18;;
75220;SDS011;63802;53.232;6.570;2023-08-01T03:01:12;10.65;;;4.18;;
75220;SDS011;63802;53.232;6.570;2023-08-01T03:03:38;11.10;;;4.40;;
75220;SDS011;63802;53.232;6.570;2023-08-01T03:06:04;12.18;;;4.30;;
75220;SDS011;63802;53.232;6.570;2023-08-01T03:08:30;18.48;;;4.78;;
75220;SDS011;63802;53.232;6.570;2023-08-01T03:10:56;12.43;;;4.30;;
75220;SDS011;63802;53.232;6.570;2023-08-01T03:13:22;14.07;;;3.92;;
75220;SDS011;63802;53.232;6.570;2023-08-01T03:15:47;9.82;;;3.90;;
75220;SDS011;63802;53.232;6.570;2023-08-01T03:18:13;11.85;;;4.20;;
75220;SDS011;63802;53.232;6.570;2023-08-01T03:20:38;13.65;;;4.32;;
75220;SDS011;63802;53.232;6.570;2023-08-01T03:23:04;14.55;;;4.25;;
75220;SDS011;63802;53.232;6.570;2023-08-01T03:25:30;11.35;;;3.95;;
75220;SDS011;63802;53.232;6.570;2023-08-01T03:27:56;17.23;;;5.15;;
75220;SDS011;63802;53.232;6.570;2023-08-01T03:30:21;14.48;;;4.93;;
75220;SDS011;63802;53.232;6.570;2023-08-01T03:32:48;19.33;;;4.32;;
75220;SDS011;63802;53.232;6.570;2023-08-01T03:35:13;15.18;;;4.50;;
75220;SDS011;63802;53.232;6.570;2023-08-01T03:37:39;15.23;;;5.30;;
75220;SDS011;63802;53.232;6.570;2023-08-01T03:40:05;15.65;;;5.13;;
75220;SDS011;63802;53.232;6.570;2023-08-01T03:42:34;12.70;;;5.00;;
75220;SDS011;63802;53.232;6.570;2023-08-01T03:45:00;12.10;;;4.30;;
75220;SDS011;63802;53.232;6.570;2023-08-01T03:47:26;13.35;;;4.53;;
75220;SDS011;63802;53.232;6.570;2023-08-01T03:49:51;13.57;;;4.53;;
75220;SDS011;63802;53.232;6.570;2023-08-01T03:52:17;12.73;;;5.03;;
75220;SDS011;63802;53.232;6.570;2023-08-01T03:54:42;19.05;;;5.10;;
75220;SDS011;63802;53.232;6.570;2023-08-01T03:57:07;14.20;;;4.78;;
75220;SDS011;63802;53.232;6.570;2023-08-01T03:59:33;19.17;;;4.35;;
75220;SDS011;63802;53.232;6.570;2023-08-01T04:01:59;11.95;;;4.68;;
75220;SDS011;63802;53.232;6.570;2023-08-01T04:04:24;13.48;;;3.90;;
75220;SDS011;63802;53.232;6.570;2023-08-01T04:06:49;13.40;;;3.70;;
75220;SDS011;63802;53.232;6.570;2023-08-01T04:09:15;14.75;;;4.20;;
75220;SDS011;63802;53.232;6.570;2023-08-01T04:11:40;12.45;;;4.45;;
75220;SDS011;63802;53.232;6.570;2023-08-01T04:14:06;14.38;;;3.75;;
75220;SDS011;63802;53.232;6.570;2023-08-01T04:16:31;10.25;;;3.67;;
75220;SDS011;63802;53.232;6.570;2023-08-01T04:18:57;12.93;;;3.58;;
75220;SDS011;63802;53.232;6.570;2023-08-01T04:21:23;8.90;;;3.53;;
75220;SDS011;63802;53.232;6.570;2023-08-01T04:23:48;10.25;;;3.28;;
75220;SDS011;63802;53.232;6.570;2023-08-01T04:26:13;12.52;;;3.13;;
75220;SDS011;63802;53.232;6.570;2023-08-01T04:28:39;12.32;;;3.42;;
75220;SDS011;63802;53.232;6.570;2023-08-01T04:31:04;10.73;;;3.35;;
75220;SDS011;63802;53.232;6.570;2023-08-01T04:33:30;8.80;;;2.55;;
75220;SDS011;63802;53.232;6.570;2023-08-01T04:35:55;11.05;;;3.20;;
75220;SDS011;63802;53.232;6.570;2023-08-01T04:38:22;6.78;;;2.85;;
75220;SDS011;63802;53.232;6.570;2023-08-01T04:40:48;8.93;;;2.72;;
75220;SDS011;63802;53.232;6.570;2023-08-01T04:43:14;10.77;;;2.65;;
75220;SDS011;63802;53.232;6.570;2023-08-01T04:46:01;9.40;;;2.65;;
75220;SDS011;63802;53.232;6.570;2023-08-01T04:48:28;10.48;;;2.53;;
75220;SDS011;63802;53.232;6.570;2023-08-01T04:50:54;13.93;;;3.35;;
75220;SDS011;63802;53.232;6.570;2023-08-01T04:53:19;10.93;;;3.10;;
75220;SDS011;63802;53.232;6.570;2023-08-01T04:55:45;12.43;;;3.00;;
75220;SDS011;63802;53.232;6.570;2023-08-01T04:58:10;12.50;;;3.17;;
75220;SDS011;63802;53.232;6.570;2023-08-01T05:00:36;8.82;;;2.80;;
75220;SDS011;63802;53.232;6.570;2023-08-01T05:03:02;9.35;;;2.53;;
75220;SDS011;63802;53.232;6.570;2023-08-01T05:05:28;11.27;;;2.38;;
75220;SDS011;63802;53.232;6.570;2023-08-01T05:07:53;8.57;;;2.58;;
75220;SDS011;63802;53.232;6.570;2023-08-01T05:10:19;12.02;;;2.72;;
75220;SDS011;63802;53.232;6.570;2023-08-01T05:12:44;8.27;;;2.33;;
75220;SDS011;63802;53.232;6.570;2023-08-01T05:15:09;5.40;;;2.08;;
75220;SDS011;63802;53.232;6.570;2023-08-01T05:17:35;9.85;;;2.67;;
75220;SDS011;63802;53.232;6.570;2023-08-01T05:20:00;9.77;;;2.65;;
75220;SDS011;63802;53.232;6.570;2023-08-01T05:22:28;7.70;;;2.40;;
75220;SDS011;63802;53.232;6.570;2023-08-01T05:24:53;8.73;;;2.13;;
75220;SDS011;63802;53.232;6.570;2023-08-01T05:27:19;8.82;;;2.47;;
75220;SDS011;63802;53.232;6.570;2023-08-01T05:29:44;3.90;;;2.20;;
75220;SDS011;63802;53.232;6.570;2023-08-01T05:32:10;6.28;;;2.10;;
75220;SDS011;63802;53.232;6.570;2023-08-01T05:34:35;6.30;;;2.47;;
75220;SDS011;63802;53.232;6.570;2023-08-01T05:37:00;8.38;;;2.30;;
75220;SDS011;63802;53.232;6.570;2023-08-01T05:39:26;5.35;;;2.33;;
75220;SDS011;63802;53.232;6.570;2023-08-01T05:41:51;8.20;;;2.10;;
75220;SDS011;63802;53.232;6.570;2023-08-01T05:44:17;8.48;;;2.22;;
75220;SDS011;63802;53.232;6.570;2023-08-01T05:46:42;9.32;;;1.83;;
75220;SDS011;63802;53.232;6.570;2023-08-01T05:49:07;5.85;;;2.45;;
75220;SDS011;63802;53.232;6.570;2023-08-01T05:51:33;6.38;;;1.88;;
75220;SDS011;63802;53.232;6.570;2023-08-01T05:53:58;6.63;;;2.08;;
75220;SDS011;63802;53.232;6.570;2023-08-01T05:56:23;9.75;;;2.00;;
75220;SDS011;63802;53.232;6.570;2023-08-01T05:58:49;6.50;;;2.00;;
75220;SDS011;63802;53.232;6.570;2023-08-01T06:01:15;7.32;;;2.13;;
75220;SDS011;63802;53.232;6.570;2023-08-01T06:03:41;4.63;;;2.10;;
75220;SDS011;63802;53.232;6.570;2023-08-01T06:06:07;7.57;;;2.45;;
75220;SDS011;63802;53.232;6.570;2023-08-01T06:08:33;9.48;;;2.78;;
75220;SDS011;63802;53.232;6.570;2023-08-01T06:10:58;9.07;;;2.60;;
75220;SDS011;63802;53.232;6.570;2023-08-01T06:13:24;5.03;;;2.50;;
75220;SDS011;63802;53.232;6.570;2023-08-01T06:15:49;4.63;;;2.42;;
75220;SDS011;63802;53.232;6.570;2023-08-01T06:18:15;6.13;;;2.47;;
75220;SDS011;63802;53.232;6.570;2023-08-01T06:20:40;7.50;;;2.53;;
75220;SDS011;63802;53.232;6.570;2023-08-01T06:23:06;6.68;;;2.25;;
75220;SDS011;63802;53.232;6.570;2023-08-01T06:25:31;5.78;;;2.38;;
75220;SDS011;63802;53.232;6.570;2023-08-01T06:27:57;8.05;;;2.58;;
75220;SDS011;63802;53.232;6.570;2023-08-01T06:30:22;5.60;;;2.20;;
75220;SDS011;63802;53.232;6.570;2023-08-01T06:32:50;5.15;;;2.25;;
75220;SDS011;63802;53.232;6.570;2023-08-01T06:35:15;3.83;;;2.05;;
75220;SDS011;63802;53.232;6.570;2023-08-01T06:37:41;5.97;;;2.30;;
75220;SDS011;63802;53.232;6.570;2023-08-01T06:40:06;7.20;;;2.42;;
75220;SDS011;63802;53.232;6.570;2023-08-01T06:42:33;5.28;;;2.22;;
75220;SDS011;63802;53.232;6.570;2023-08-01T06:44:58;5.80;;;2.40;;
75220;SDS011;63802;53.232;6.570;2023-08-01T06:47:24;3.33;;;1.85;;
75220;SDS011;63802;53.232;6.570;2023-08-01T06:49:49;3.30;;;2.15;;
75220;SDS011;63802;53.232;6.570;2023-08-01T06:52:15;5.43;;;1.80;;
75220;SDS011;63802;53.232;6.570;2023-08-01T06:54:40;6.30;;;2.30;;
75220;SDS011;63802;53.232;6.570;2023-08-01T06:57:06;3.80;;;2.00;;
75220;SDS011;63802;53.232;6.570;2023-08-01T06:59:32;4.53;;;1.80;;
75220;SDS011;63802;53.232;6.570;2023-08-01T07:01:58;4.55;;;2.00;;
75220;SDS011;63802;53.232;6.570;2023-08-01T07:04:23;5.80;;;2.08;;
75220;SDS011;63802;53.232;6.570;2023-08-01T07:06:48;2.17;;;1.95;;
75220;SDS011;63802;53.232;6.570;2023-08-01T07:09:14;6.93;;;2.10;;
75220;SDS011;63802;53.232;6.570;2023-08-01T07:11:40;3.78;;;1.73;;
75220;SDS011;63802;53.232;6.570;2023-08-01T07:14:05;4.78;;;1.70;;
75220;SDS011;63802;53.232;6.570;2023-08-01T07:16:30;5.18;;;1.90;;
75220;SDS011;63802;53.232;6.570;2023-08-01T07:18:57;4.88;;;2.05;;
75220;SDS011;63802;53.232;6.570;2023-08-01T07:21:24;10.50;;;2.42;;
75220;SDS011;63802;53.232;6.570;2023-08-01T07:23:50;3.28;;;1.80;;
75220;SDS011;63802;53.232;6.570;2023-08-01T07:26:15;4.85;;;1.80;;
75220;SDS011;63802;53.232;6.570;2023-08-01T07:28:41;4.93;;;1.55;;
75220;SDS011;63802;53.232;6.570;2023-08-01T07:31:06;5.35;;;1.70;;
75220;SDS011;63802;53.232;6.570;2023-08-01T07:33:33;5.63;;;1.60;;
75220;SDS011;63802;53.232;6.570;2023-08-01T07:35:59;6.05;;;1.38;;
75220;SDS011;63802;53.232;6.570;2023-08-01T07:38:25;5.55;;;1.27;;
75220;SDS011;63802;53.232;6.570;2023-08-01T07:40:54;5.97;;;2.13;;
75220;SDS011;63802;53.232;6.570;2023-08-01T07:43:20;5.35;;;1.65;;
75220;SDS011;63802;53.232;6.570;2023-08-01T07:45:46;3.65;;;1.60;;
75220;SDS011;63802;53.232;6.570;2023-08-01T07:48:11;2.67;;;1.10;;
75220;SDS011;63802;53.232;6.570;2023-08-01T07:50:37;4.80;;;1.20;;
75220;SDS011;63802;53.232;6.570;2023-08-01T07:53:05;4.35;;;1.30;;
75220;SDS011;63802;53.232;6.570;2023-08-01T07:55:33;9.15;;;1.67;;
75220;SDS011;63802;53.232;6.570;2023-08-01T07:57:59;2.53;;;1.70;;
75220;SDS011;63802;53.232;6.570;2023-08-01T08:00:24;6.57;;;1.20;;
75220;SDS011;63802;53.232;6.570;2023-08-01T08:02:50;7.80;;;1.48;;
75220;SDS011;63802;53.232;6.570;2023-08-01T08:05:15;5.90;;;1.35;;
75220;SDS011;63802;53.232;6.570;2023-08-01T08:07:41;4.65;;;1.17;;
75220;SDS011;63802;53.232;6.570;2023-08-01T08:10:06;4.93;;;1.23;;
75220;SDS011;63802;53.232;6.570;2023-08-01T08:12:32;5.60;;;0.95;;
75220;SDS011;63802;53.232;6.570;2023-08-01T08:14:58;2.22;;;1.50;;
75220;SDS011;63802;53.232;6.570;2023-08-01T08:17:23;4.03;;;1.10;;
75220;SDS011;63802;53.232;6.570;2023-08-01T08:19:49;1.98;;;1.00;;
75220;SDS011;63802;53.232;6.570;2023-08-01T08:22:14;7.22;;;1.40;;
75220;SDS011;63802;53.232;6.570;2023-08-01T08:24:40;7.10;;;1.50;;
75220;SDS011;63802;53.232;6.570;2023-08-01T08:27:05;3.45;;;1.50;;
75220;SDS011;63802;53.232;6.570;2023-08-01T08:29:31;3.47;;;1.30;;
75220;SDS011;63802;53.232;6.570;2023-08-01T08:31:58;2.90;;;1.27;;
75220;SDS011;63802;53.232;6.570;2023-08-01T08:34:23;3.65;;;1.30;;
75220;SDS011;63802;53.232;6.570;2023-08-01T08:36:49;4.72;;;1.60;;
75220;SDS011;63802;53.232;6.570;2023-08-01T08:39:17;3.10;;;1.47;;
75220;SDS011;63802;53.232;6.570;2023-08-01T08:41:47;2.95;;;1.40;;
75220;SDS011;63802;53.232;6.570;2023-08-01T08:44:15;6.75;;;1.50;;
75220;SDS011;63802;53.232;6.570;2023-08-01T08:46:46;4.25;;;1.60;;
75220;SDS011;63802;53.232;6.570;2023-08-01T08:49:17;5.50;;;1.65;;
75220;SDS011;63802;53.232;6.570;2023-08-01T08:51:45;6.38;;;1.70;;
75220;SDS011;63802;53.232;6.570;2023-08-01T08:54:11;7.55;;;2.40;;
75220;SDS011;63802;53.232;6.570;2023-08-01T08:56:38;8.02;;;2.03;;
75220;SDS011;63802;53.232;6.570;2023-08-01T08:59:05;7.70;;;2.70;;
75220;SDS011;63802;53.232;6.570;2023-08-01T09:01:32;6.15;;;2.28;;
75220;SDS011;63802;53.232;6.570;2023-08-01T09:03:57;5.35;;;1.65;;
75220;SDS011;63802;53.232;6.570;2023-08-01T09:06:37;5.00;;;1.80;;
75220;SDS011;63802;53.232;6.570;2023-08-01T09:09:24;6.03;;;1.80;;
75220;SDS011;63802;53.232;6.570;2023-08-01T09:11:52;9.25;;;2.30;;
75220;SDS011;63802;53.232;6.570;2023-08-01T09:14:18;4.80;;;1.90;;
75220;SDS011;63802;53.232;6.570;2023-08-01T09:16:45;4.38;;;1.70;;
75220;SDS011;63802;53.232;6.570;2023-08-01T09:19:15;3.80;;;1.60;;
75220;SDS011;63802;53.232;6.570;2023-08-01T09:21:45;3.30;;;1.73;;
75220;SDS011;63802;53.232;6.570;2023-08-01T09:24:11;3.22;;;1.73;;
75220;SDS011;63802;53.232;6.570;2023-08-01T09:26:38;5.28;;;1.63;;
75220;SDS011;63802;53.232;6.570;2023-08-01T09:29:05;5.15;;;1.98;;
75220;SDS011;63802;53.232;6.570;2023-08-01T09:31:35;4.85;;;1.77;;
75220;SDS011;63802;53.232;6.570;2023-08-01T09:34:03;4.88;;;1.65;;
75220;SDS011;63802;53.232;6.570;2023-08-01T09:36:30;4.80;;;1.40;;
75220;SDS011;63802;53.232;6.570;2023-08-01T09:39:03;2.75;;;1.65;;
75220;SDS011;63802;53.232;6.570;2023-08-01T09:41:29;5.18;;;1.75;;
75220;SDS011;63802;53.232;6.570;2023-08-01T09:43:55;6.53;;;1.60;;
75220;SDS011;63802;53.232;6.570;2023-08-01T09:46:21;2.25;;;1.10;;
75220;SDS011;63802;53.232;6.570;2023-08-01T09:48:47;5.95;;;1.60;;
75220;SDS011;63802;53.232;6.570;2023-08-01T09:51:14;5.07;;;1.65;;
75220;SDS011;63802;53.232;6.570;2023-08-01T09:54:15;6.13;;;1.90;;
75220;SDS011;63802;53.232;6.570;2023-08-01T09:56:33;3.95;;;1.67;;
75220;SDS011;63802;53.232;6.570;2023-08-01T09:58:59;1.60;;;1.38;;
75220;SDS011;63802;53.232;6.570;2023-08-01T10:01:26;4.15;;;1.50;;
75220;SDS011;63802;53.232;6.570;2023-08-01T10:03:53;3.95;;;1.67;;
75220;SDS011;63802;53.232;6.570;2023-08-01T10:06:22;8.93;;;1.63;;
75220;SDS011;63802;53.232;6.570;2023-08-01T10:08:50;2.15;;;1.40;;
75220;SDS011;63802;53.232;6.570;2023-08-01T10:11:17;5.25;;;1.40;;
75220;SDS011;63802;53.232;6.570;2023-08-01T10:13:44;3.83;;;1.25;;
75220;SDS011;63802;53.232;6.570;2023-08-01T10:16:11;8.75;;;1.48;;
75220;SDS011;63802;53.232;6.570;2023-08-01T10:18:37;5.88;;;1.42;;
75220;SDS011;63802;53.232;6.570;2023-08-01T10:21:04;5.35;;;1.50;;
75220;SDS011;63802;53.232;6.570;2023-08-01T10:23:32;4.70;;;1.30;;
75220;SDS011;63802;53.232;6.570;2023-08-01T10:25:59;4.50;;;1.67;;
75220;SDS011;63802;53.232;6.570;2023-08-01T10:28:32;4.60;;;1.38;;
75220;SDS011;63802;53.232;6.570;2023-08-01T10:31:08;2.67;;;1.65;;
75220;SDS011;63802;53.232;6.570;2023-08-01T10:33:42;2.47;;;1.30;;
75220;SDS011;63802;53.232;6.570;2023-08-01T10:36:13;4.18;;;1.50;;
75220;SDS011;63802;53.232;6.570;2023-08-01T10:38:48;4.43;;;1.70;;
75220;SDS011;63802;53.232;6.570;2023-08-01T10:41:18;5.82;;;1.50;;
75220;SDS011;63802;53.232;6.570;2023-08-01T10:43:45;5.20;;;1.85;;
75220;SDS011;63802;53.232;6.570;2023-08-01T10:46:14;7.65;;;1.75;;
75220;SDS011;63802;53.232;6.570;2023-08-01T10:48:52;8.07;;;1.73;;
75220;SDS011;63802;53.232;6.570;2023-08-01T10:51:17;5.40;;;1.67;;
75220;SDS011;63802;53.232;6.570;2023-08-01T10:53:43;6.57;;;1.88;;
75220;SDS011;63802;53.232;6.570;2023-08-01T10:56:15;5.85;;;1.75;;
75220;SDS011;63802;53.232;6.570;2023-08-01T10:58:42;1.98;;;1.20;;
75220;SDS011;63802;53.232;6.570;2023-08-01T11:01:07;5.75;;;1.25;;
75220;SDS011;63802;53.232;6.570;2023-08-01T11:03:37;4.20;;;1.30;;
75220;SDS011;63802;53.232;6.570;2023-08-01T11:06:03;4.22;;;1.48;;
75220;SDS011;63802;53.232;6.570;2023-08-01T11:08:35;5.75;;;1.27;;
75220;SDS011;63802;53.232;6.570;2023-08-01T11:11:05;4.15;;;1.48;;
75220;SDS011;63802;53.232;6.570;2023-08-01T11:13:33;4.20;;;1.30;;
75220;SDS011;63802;53.232;6.570;2023-08-01T11:16:01;3.15;;;1.30;;
75220;SDS011;63802;53.232;6.570;2023-08-01T11:18:40;8.02;;;2.90;;
75220;SDS011;63802;53.232;6.570;2023-08-01T11:21:09;7.30;;;1.25;;
75220;SDS011;63802;53.232;6.570;2023-08-01T11:23:35;5.07;;;1.25;;
75220;SDS011;63802;53.232;6.570;2023-08-01T11:26:06;4.10;;;1.23;;
75220;SDS011;63802;53.232;6.570;2023-08-01T11:28:36;4.97;;;1.42;;
75220;SDS011;63802;53.232;6.570;2023-08-01T11:31:08;2.60;;;0.95;;
75220;SDS011;63802;53.232;6.570;2023-08-01T11:33:35;6.57;;;1.65;;
75220;SDS011;63802;53.232;6.570;2023-08-01T11:36:01;1.85;;;1.10;;
75220;SDS011;63802;53.232;6.570;2023-08-01T11:38:31;2.67;;;1.10;;
75220;SDS011;63802;53.232;6.570;2023-08-01T11:40:58;4.95;;;1.30;;
75220;SDS011;63802;53.232;6.570;2023-08-01T11:43:25;3.58;;;1.10;;
75220;SDS011;63802;53.232;6.570;2023-08-01T11:45:54;2.25;;;1.08;;
75220;SDS011;63802;53.232;6.570;2023-08-01T11:48:22;5.00;;;1.20;;
75220;SDS011;63802;53.232;6.570;2023-08-01T11:50:48;4.40;;;1.23;;
75220;SDS011;63802;53.232;6.570;2023-08-01T11:53:18;3.65;;;1.23;;
75220;SDS011;63802;53.232;6.570;2023-08-01T11:55:47;3.22;;;1.23;;
75220;SDS011;63802;53.232;6.570;2023-08-01T11:58:14;2.90;;;1.20;;
75220;SDS011;63802;53.232;6.570;2023-08-01T12:00:40;3.17;;;1.05;;
75220;SDS011;63802;53.232;6.570;2023-08-01T12:03:07;3.65;;;1.05;;
75220;SDS011;63802;53.232;6.570;2023-08-01T12:05:38;3.95;;;1.10;;
75220;SDS011;63802;53.232;6.570;2023-08-01T12:08:11;1.58;;;0.82;;
75220;SDS011;63802;53.232;6.570;2023-08-01T12:10:40;6.20;;;1.25;;
75220;SDS011;63802;53.232;6.570;2023-08-01T12:13:18;2.70;;;1.15;;
75220;SDS011;63802;53.232;6.570;2023-08-01T12:15:48;3.40;;;1.30;;
75220;SDS011;63802;53.232;6.570;2023-08-01T12:18:27;4.05;;;1.10;;
75220;SDS011;63802;53.232;6.570;2023-08-01T12:20:54;3.42;;;1.38;;
75220;SDS011;63802;53.232;6.570;2023-08-01T12:23:20;5.15;;;1.40;;
75220;SDS011;63802;53.232;6.570;2023-08-01T12:25:46;7.40;;;1.58;;
75220;SDS011;63802;53.232;6.570;2023-08-01T12:28:13;4.30;;;1.40;;
75220;SDS011;63802;53.232;6.570;2023-08-01T12:30:39;5.55;;;1.70;;
75220;SDS011;63802;53.232;6.570;2023-08-01T12:33:09;6.45;;;1.60;;
75220;SDS011;63802;53.232;6.570;2023-08-01T12:35:38;6.63;;;1.45;;
75220;SDS011;63802;53.232;6.570;2023-08-01T12:38:04;5.38;;;1.42;;
75220;SDS011;63802;53.232;6.570;2023-08-01T12:40:29;4.78;;;1.50;;
75220;SDS011;63802;53.232;6.570;2023-08-01T12:42:55;3.33;;;1.80;;
75220;SDS011;63802;53.232;6.570;2023-08-01T12:45:20;4.68;;;1.27;;
75220;SDS011;63802;53.232;6.570;2023-08-01T12:47:45;6.90;;;2.15;;
75220;SDS011;63802;53.232;6.570;2023-08-01T12:50:12;8.65;;;1.85;;
75220;SDS011;63802;53.232;6.570;2023-08-01T12:52:37;5.22;;;1.33;;
75220;SDS011;63802;53.232;6.570;2023-08-01T12:55:02;7.60;;;1.77;;
75220;SDS011;63802;53.232;6.570;2023-08-01T12:57:28;6.72;;;1.77;;
75220;SDS011;63802;53.232;6.570;2023-08-01T12:59:54;5.15;;;1.65;;
75220;SDS011;63802;53.232;6.570;2023-08-01T13:02:19;5.50;;;2.03;;
75220;SDS011;63802;53.232;6.570;2023-08-01T13:04:44;2.15;;;1.20;;
75220;SDS011;63802;53.232;6.570;2023-08-01T13:07:10;5.50;;;1.45;;
75220;SDS011;63802;53.232;6.570;2023-08-01T13:09:35;2.83;;;1.40;;
75220;SDS011;63802;53.232;6.570;2023-08-01T13:12:01;7.32;;;1.42;;
75220;SDS011;63802;53.232;6.570;2023-08-01T13:14:27;5.53;;;1.50;;
75220;SDS011;63802;53.232;6.570;2023-08-01T13:16:52;5.78;;;1.60;;
75220;SDS011;63802;53.232;6.570;2023-08-01T13:19:18;4.82;;;1.65;;
75220;SDS011;63802;53.232;6.570;2023-08-01T13:21:44;6.50;;;1.55;;
75220;SDS011;63802;53.232;6.570;2023-08-01T13:24:09;5.00;;;1.50;;
75220;SDS011;63802;53.232;6.570;2023-08-01T13:26:36;3.65;;;1.30;;
75220;SDS011;63802;53.232;6.570;2023-08-01T13:29:02;2.58;;;1.20;;
75220;SDS011;63802;53.232;6.570;2023-08-01T13:31:27;4.70;;;1.52;;
75220;SDS011;63802;53.232;6.570;2023-08-01T13:33:53;2.08;;;0.98;;
75220;SDS011;63802;53.232;6.570;2023-08-01T13:36:19;2.08;;;1.10;;
75220;SDS011;63802;53.232;6.570;2023-08-01T13:38:44;3.25;;;1.55;;
75220;SDS011;63802;53.232;6.570;2023-08-01T13:41:10;6.68;;;1.50;;
75220;SDS011;63802;53.232;6.570;2023-08-01T13:43:36;4.97;;;1.48;;
75220;SDS011;63802;53.232;6.570;2023-08-01T13:46:09;3.63;;;1.35;;
75220;SDS011;63802;53.232;6.570;2023-08-01T13:48:37;2.58;;;1.20;;
75220;SDS011;63802;53.232;6.570;2023-08-01T13:51:02;2.58;;;1.33;;
75220;SDS011;63802;53.232;6.570;2023-08-01T13:53:28;2.40;;;1.13;;
75220;SDS011;63802;53.232;6.570;2023-08-01T13:55:54;4.32;;;1.25;;
75220;SDS011;63802;53.232;6.570;2023-08-01T13:58:19;6.45;;;1.48;;
75220;SDS011;63802;53.232;6.570;2023-08-01T14:00:45;3.22;;;1.40;;
75220;SDS011;63802;53.232;6.570;2023-08-01T14:03:11;3.20;;;1.60;;
75220;SDS011;63802;53.232;6.570;2023-08-01T14:05:37;5.43;;;1.60;;
75220;SDS011;63802;53.232;6.570;2023-08-01T14:08:02;2.45;;;1.20;;
75220;SDS011;63802;53.232;6.570;2023-08-01T14:10:28;3.50;;;1.42;;
75220;SDS011;63802;53.232;6.570;2023-08-01T14:12:53;5.20;;;1.60;;
75220;SDS011;63802;53.232;6.570;2023-08-01T14:15:19;4.10;;;1.48;;
75220;SDS011;63802;53.232;6.570;2023-08-01T14:17:44;4.78;;;1.60;;
75220;SDS011;63802;53.232;6.570;2023-08-01T14:20:10;3.60;;;1.33;;
75220;SDS011;63802;53.232;6.570;2023-08-01T14:22:36;5.15;;;1.50;;
75220;SDS011;63802;53.232;6.570;2023-08-01T14:25:01;3.03;;;1.45;;
75220;SDS011;63802;53.232;6.570;2023-08-01T14:27:27;4.55;;;1.20;;
75220;SDS011;63802;53.232;6.570;2023-08-01T14:29:52;3.08;;;1.50;;
75220;SDS011;63802;53.232;6.570;2023-08-01T14:32:18;8.23;;;1.60;;
75220;SDS011;63802;53.232;6.570;2023-08-01T14:34:45;4.40;;;1.40;;
75220;SDS011;63802;53.232;6.570;2023-08-01T14:37:10;4.85;;;1.50;;
75220;SDS011;63802;53.232;6.570;2023-08-01T14:39:35;3.50;;;1.40;;